Time;durP1;ratioP1;P1;durP2;ratioP2;P2;SDS_P1;SDS_P2;PMS_P1;PMS_P2;Temp;Humidity;BMP_temperature;BMP_pressure;BME280_temperature;BME280_humidity;BME280_pressure;Samples;Min_cycle;Max_cycle;Signal;HPM_P1;HPM_P2
2022/09/14 00:00:16;;;;;;;7.10;2.70;;;20.20;99.90;;;;;;5037598;28;20181;-77
2022/09/14 00:02:42;;;;;;;4.20;2.10;;;20.20;99.90;;;;;;5031605;28;20617;-77
2022/09/14 00:05:08;;;;;;;5.50;2.27;;;20.20;99.90;;;;;;5032647;28;20177;-78
2022/09/14 00:07:34;;;;;;;6.43;2.70;;;20.20;99.90;;;;;;5045086;28;20281;-77
2022/09/14 00:09:59;;;;;;;4.30;2.67;;;20.20;99.90;;;;;;5042005;28;20263;-78
2022/09/14 00:12:25;;;;;;;5.63;2.80;;;20.20;99.90;;;;;;5023975;28;20178;-77
2022/09/14 00:14:51;;;;;;;4.23;2.97;;;20.10;99.90;;;;;;5038475;28;20260;-77
2022/09/14 00:17:16;;;;;;;5.37;3.20;;;20.10;99.90;;;;;;5047587;28;20201;-77
2022/09/14 00:19:42;;;;;;;5.60;2.70;;;20.10;99.90;;;;;;5045497;28;20765;-78
2022/09/14 00:22:08;;;;;;;3.97;2.63;;;20.10;99.90;;;;;;5034750;28;20170;-77
2022/09/14 00:24:34;;;;;;;6.30;3.20;;;20.10;99.90;;;;;;5037270;28;20244;-77
2022/09/14 00:27:01;;;;;;;4.77;3.20;;;20.10;99.90;;;;;;5039758;28;20250;-77
2022/09/14 00:29:28;;;;;;;6.73;3.90;;;20.00;99.90;;;;;;5037896;28;20215;-77
2022/09/14 00:31:54;;;;;;;7.90;3.63;;;20.00;99.90;;;;;;5043128;28;20185;-78
2022/09/14 00:34:20;;;;;;;6.17;3.73;;;20.00;99.90;;;;;;5042972;28;20182;-77
2022/09/14 00:36:49;;;;;;;6.43;4.30;;;20.10;99.90;;;;;;5037808;28;20304;-77
2022/09/14 00:39:17;;;;;;;8.20;4.23;;;20.00;99.90;;;;;;5008714;28;20238;-77
2022/09/14 00:41:45;;;;;;;9.33;5.20;;;20.00;99.90;;;;;;5023777;28;20329;-77
2022/09/14 00:44:10;;;;;;;8.67;5.40;;;19.90;99.90;;;;;;5041289;28;20203;-77
2022/09/14 00:46:37;;;;;;;6.87;5.13;;;19.90;99.90;;;;;;5030627;28;20198;-77
2022/09/14 00:49:10;;;;;;;7.57;5.47;;;19.80;99.90;;;;;;5041025;28;20265;-77
2022/09/14 00:51:42;;;;;;;7.90;5.70;;;19.80;99.90;;;;;;5035892;28;20190;-78
2022/09/14 00:54:08;;;;;;;6.97;5.13;;;19.70;99.90;;;;;;5036395;28;20257;-77
2022/09/14 00:56:34;;;;;;;7.70;4.50;;;19.70;99.90;;;;;;5030966;28;20340;-77
2022/09/14 00:59:22;;;;;;;5.47;3.30;;;19.70;99.90;;;;;;5033077;28;20210;-78
2022/09/14 01:01:49;;;;;;;5.77;3.10;;;19.50;99.90;;;;;;5047319;28;20178;-77
2022/09/14 01:04:16;;;;;;;7.27;3.53;;;19.50;99.90;;;;;;5045544;28;20263;-77
2022/09/14 01:07:18;;;;;;;7.47;3.50;;;19.50;99.90;;;;;;5043731;28;20221;-77
2022/09/14 01:10:09;;;;;;;6.63;2.87;;;19.60;99.90;;;;;;5048470;28;20180;-77
2022/09/14 01:13:08;;;;;;;4.87;2.73;;;19.60;99.90;;;;;;5038578;28;20738;-77
2022/09/14 01:15:55;;;;;;;6.83;2.50;;;19.60;99.90;;;;;;5058813;28;20213;-77
2022/09/14 01:18:34;;;;;;;4.13;2.50;;;19.60;99.90;;;;;;5031013;28;20209;-77
2022/09/14 01:21:12;;;;;;;9.17;2.43;;;19.60;99.90;;;;;;5030382;28;20309;-77
2022/09/14 01:23:58;;;;;;;4.50;2.60;;;19.50;99.90;;;;;;5037974;28;20207;-78
2022/09/14 01:26:39;;;;;;;3.17;2.33;;;19.50;99.90;;;;;;5045802;28;20225;-77
2022/09/14 01:29:22;;;;;;;3.10;2.40;;;19.50;99.90;;;;;;5041221;28;20190;-77
2022/09/14 01:31:55;;;;;;;5.37;2.93;;;19.50;99.90;;;;;;5029227;28;20819;-77
2022/09/14 01:34:35;;;;;;;7.37;2.90;;;19.50;99.90;;;;;;5040946;28;20214;-77
2022/09/14 01:37:19;;;;;;;4.87;2.97;;;19.50;99.90;;;;;;5036510;28;20202;-78
2022/09/14 01:39:51;;;;;;;7.90;3.20;;;19.40;99.90;;;;;;5042036;28;20201;-77
2022/09/14 01:42:21;;;;;;;6.17;3.30;;;19.40;99.90;;;;;;5030586;28;20217;-77
2022/09/14 01:44:51;;;;;;;4.30;3.40;;;19.40;99.90;;;;;;5048156;28;20167;-77
2022/09/14 01:47:37;;;;;;;5.07;3.10;;;19.50;99.90;;;;;;5044874;28;20204;-77
2022/09/14 01:50:14;;;;;;;4.87;3.03;;;19.40;99.90;;;;;;5028653;28;20595;-77
2022/09/14 01:53:07;;;;;;;6.27;2.87;;;19.40;99.90;;;;;;5048675;28;20287;-77
2022/09/14 01:55:41;;;;;;;6.73;2.97;;;19.40;99.90;;;;;;5035215;28;20188;-75
2022/09/14 01:58:12;;;;;;;5.53;2.70;;;19.30;99.90;;;;;;5029812;28;20205;-75
2022/09/14 02:00:44;;;;;;;7.90;2.87;;;19.20;99.90;;;;;;5030065;28;20513;-75
2022/09/14 02:03:18;;;;;;;6.53;3.20;;;19.20;99.90;;;;;;5036261;28;20186;-75
2022/09/14 02:06:04;;;;;;;6.97;3.60;;;19.20;99.90;;;;;;5043835;28;20557;-74
2022/09/14 02:08:30;;;;;;;5.83;3.40;;;19.20;99.90;;;;;;5043991;28;20190;-75
2022/09/14 02:10:57;;;;;;;6.27;3.77;;;19.30;99.90;;;;;;5042631;28;20236;-76
2022/09/14 02:13:24;;;;;;;5.47;3.20;;;19.30;99.90;;;;;;5049315;28;20209;-75
2022/09/14 02:15:50;;;;;;;5.13;3.17;;;19.30;99.90;;;;;;5044134;28;20192;-76
2022/09/14 02:18:16;;;;;;;6.47;3.27;;;19.30;99.90;;;;;;5036309;28;20197;-76
2022/09/14 02:20:58;;;;;;;5.23;2.83;;;19.30;99.90;;;;;;5039149;28;20178;-75
2022/09/14 02:23:24;;;;;;;8.50;3.40;;;19.40;99.90;;;;;;5034306;28;20181;-77
2022/09/14 02:25:51;;;;;;;4.37;2.80;;;19.40;99.90;;;;;;5046966;28;20193;-76
2022/09/14 02:28:19;;;;;;;8.30;3.77;;;19.40;99.90;;;;;;5026697;28;20193;-75
2022/09/14 02:31:11;;;;;;;5.00;3.73;;;19.40;99.90;;;;;;5035208;28;20649;-75
2022/09/14 02:34:15;;;;;;;4.30;2.90;;;19.40;99.90;;;;;;5035506;28;20595;-75
2022/09/14 02:36:56;;;;;;;5.40;3.33;;;19.40;99.90;;;;;;4997127;28;20210;-76
2022/09/14 02:39:34;;;;;;;6.70;3.40;;;19.40;99.90;;;;;;5025549;28;20568;-75
2022/09/14 02:42:14;;;;;;;5.90;3.20;;;19.40;99.90;;;;;;5026539;28;20225;-75
2022/09/14 02:44:56;;;;;;;4.70;3.50;;;19.30;99.90;;;;;;5045747;28;20171;-75
2022/09/14 02:47:29;;;;;;;5.87;3.63;;;19.30;99.90;;;;;;5045569;28;21052;-75
2022/09/14 02:50:08;;;;;;;6.50;3.60;;;19.30;99.90;;;;;;5045719;28;20190;-76
2022/09/14 02:52:51;;;;;;;6.87;3.33;;;19.30;99.90;;;;;;5032118;28;20186;-75
2022/09/14 02:55:24;;;;;;;6.00;3.10;;;19.30;99.90;;;;;;5039819;28;20174;-75
2022/09/14 02:58:09;;;;;;;11.50;3.30;;;19.20;99.90;;;;;;5043518;28;20256;-75
2022/09/14 03:00:41;;;;;;;7.60;3.13;;;19.10;99.90;;;;;;5040732;28;20261;-75
2022/09/14 03:03:08;;;;;;;6.73;3.03;;;19.10;99.90;;;;;;5036767;28;20174;-75
2022/09/14 03:05:34;;;;;;;5.97;2.77;;;19.20;99.90;;;;;;5033963;28;20266;-75
2022/09/14 03:08:02;;;;;;;4.70;2.37;;;19.20;99.90;;;;;;5022882;28;20261;-75
2022/09/14 03:10:30;;;;;;;5.43;2.90;;;19.20;99.90;;;;;;5039718;28;20210;-75
2022/09/14 03:12:56;;;;;;;4.27;2.50;;;19.10;99.90;;;;;;5028631;28;20174;-75
2022/09/14 03:15:22;;;;;;;5.73;2.50;;;19.10;99.90;;;;;;5028538;28;20186;-75
2022/09/14 03:17:49;;;;;;;4.80;2.40;;;19.20;99.90;;;;;;5035914;28;20191;-75
2022/09/14 03:20:18;;;;;;;2.57;2.00;;;19.20;99.90;;;;;;5042784;28;20691;-76
2022/09/14 03:22:44;;;;;;;3.77;2.10;;;19.20;99.90;;;;;;5029050;28;20194;-75
2022/09/14 03:25:10;;;;;;;5.43;2.17;;;19.20;99.90;;;;;;5045767;28;20178;-76
2022/09/14 03:27:36;;;;;;;2.13;1.90;;;19.20;99.90;;;;;;5012182;28;20288;-75
2022/09/14 03:30:03;;;;;;;3.87;1.90;;;19.20;99.90;;;;;;5032112;28;20261;-75
2022/09/14 03:32:29;;;;;;;3.67;2.33;;;19.20;99.90;;;;;;5045045;28;20180;-75
2022/09/14 03:34:56;;;;;;;5.33;2.30;;;19.20;99.90;;;;;;5041285;28;20174;-75
2022/09/14 03:37:22;;;;;;;5.60;2.30;;;19.20;99.90;;;;;;5035436;28;20247;-75
2022/09/14 03:39:48;;;;;;;4.83;2.50;;;19.20;99.90;;;;;;5040728;28;20183;-75
2022/09/14 03:42:14;;;;;;;5.17;2.30;;;19.20;99.90;;;;;;5019894;28;20651;-75
2022/09/14 03:44:39;;;;;;;6.63;2.70;;;19.20;99.90;;;;;;5037404;28;20179;-74
2022/09/14 03:47:05;;;;;;;4.40;2.60;;;19.10;99.90;;;;;;5024316;28;20194;-75
2022/09/14 03:49:31;;;;;;;4.50;2.60;;;19.10;99.90;;;;;;5031872;28;20213;-77
2022/09/14 03:51:56;;;;;;;3.53;2.30;;;19.10;99.90;;;;;;5032288;28;20186;-77
2022/09/14 03:54:22;;;;;;;4.73;2.37;;;19.00;99.90;;;;;;5035994;28;20198;-75
2022/09/14 03:56:51;;;;;;;5.43;2.83;;;19.10;99.90;;;;;;5033041;28;20218;-75
2022/09/14 03:59:17;;;;;;;7.13;3.30;;;19.00;99.90;;;;;;5039361;28;20260;-75
2022/09/14 04:01:43;;;;;;;4.63;2.80;;;19.00;99.90;;;;;;5037159;28;20183;-75
2022/09/14 04:04:08;;;;;;;4.40;2.40;;;19.00;99.90;;;;;;5043210;28;20243;-75
2022/09/14 04:06:34;;;;;;;5.87;2.53;;;19.10;99.90;;;;;;5038803;28;20224;-75
2022/09/14 04:09:00;;;;;;;4.80;2.83;;;19.10;99.90;;;;;;5041161;28;20204;-75
2022/09/14 04:11:27;;;;;;;2.90;2.40;;;19.10;99.90;;;;;;5039611;28;20420;-75
2022/09/14 04:13:53;;;;;;;3.30;2.57;;;19.20;99.90;;;;;;5034005;28;20692;-75
2022/09/14 04:16:20;;;;;;;5.03;3.00;;;19.20;99.90;;;;;;5037865;28;20210;-75
2022/09/14 04:18:46;;;;;;;9.00;3.30;;;19.20;99.90;;;;;;5042050;28;20646;-74
2022/09/14 04:21:18;;;;;;;3.70;3.10;;;19.10;99.90;;;;;;5051737;28;20170;-75
2022/09/14 04:23:45;;;;;;;4.40;3.17;;;19.20;99.90;;;;;;5037649;28;20177;-75
2022/09/14 04:26:18;;;;;;;6.13;3.23;;;19.10;99.90;;;;;;5043218;28;20198;-75
2022/09/14 04:28:44;;;;;;;10.07;3.90;;;19.10;99.90;;;;;;5042861;28;20174;-75
2022/09/14 04:31:11;;;;;;;7.07;4.17;;;19.10;99.90;;;;;;5035059;28;20205;-75
2022/09/14 04:33:39;;;;;;;10.07;4.53;;;19.10;99.90;;;;;;5034661;28;20186;-75
2022/09/14 04:36:07;;;;;;;7.80;4.57;;;19.10;99.90;;;;;;5034596;28;20224;-75
2022/09/14 04:38:35;;;;;;;7.10;5.00;;;19.10;99.90;;;;;;5050598;28;20699;-75
2022/09/14 04:41:04;;;;;;;6.53;5.00;;;19.10;99.90;;;;;;5032733;28;20177;-75
2022/09/14 04:43:30;;;;;;;6.57;4.40;;;19.10;99.90;;;;;;5041020;28;20257;-75
2022/09/14 04:46:04;;;;;;;7.57;4.43;;;19.10;99.90;;;;;;5038649;28;20288;-75
2022/09/14 04:48:34;;;;;;;7.27;4.50;;;19.10;99.90;;;;;;5039632;28;20996;-74
2022/09/14 04:51:02;;;;;;;5.27;4.10;;;19.20;99.90;;;;;;5043856;28;20205;-75
2022/09/14 04:53:27;;;;;;;7.43;4.70;;;19.30;99.90;;;;;;5038278;28;20231;-75
2022/09/14 04:56:05;;;;;;;5.37;4.60;;;19.20;99.90;;;;;;5042083;28;20209;-75
2022/09/14 04:58:32;;;;;;;5.80;3.63;;;19.30;99.90;;;;;;5034250;28;20264;-74
2022/09/14 05:01:07;;;;;;;6.43;4.07;;;19.30;99.90;;;;;;5035433;28;20171;-75
2022/09/14 05:03:34;;;;;;;6.50;3.93;;;19.20;99.90;;;;;;5031209;28;20606;-75
2022/09/14 05:06:19;;;;;;;6.77;4.67;;;19.20;99.90;;;;;;5032471;28;20682;-75
2022/09/14 05:08:46;;;;;;;9.63;6.43;;;19.20;99.90;;;;;;5046008;28;20269;-75
2022/09/14 05:11:15;;;;;;;10.20;7.87;;;19.30;99.90;;;;;;5037227;28;20281;-76
2022/09/14 05:13:41;;;;;;;9.03;7.43;;;19.30;99.90;;;;;;5042405;28;20558;-75
2022/09/14 05:16:13;;;;;;;9.80;7.47;;;19.30;99.90;;;;;;5042428;28;20197;-75
2022/09/14 05:18:39;;;;;;;11.93;9.33;;;19.30;99.90;;;;;;5032857;28;20289;-75
2022/09/14 05:21:07;;;;;;;13.30;9.63;;;19.20;99.90;;;;;;5035064;28;20263;-75
2022/09/14 05:23:33;;;;;;;12.33;9.43;;;19.20;99.90;;;;;;5026051;28;20233;-74
2022/09/14 05:25:59;;;;;;;12.67;9.90;;;;;;;;;;5037464;28;20685;-75
2022/09/14 05:28:26;;;;;;;11.30;9.57;;;19.20;99.90;;;;;;5038003;28;20228;-75
2022/09/14 05:30:52;;;;;;;14.80;10.87;;;19.20;99.90;;;;;;5040942;28;20178;-74
2022/09/14 05:33:19;;;;;;;12.83;10.27;;;19.20;99.90;;;;;;5038604;28;20209;-75
2022/09/14 05:35:46;;;;;;;10.77;9.13;;;19.20;99.90;;;;;;5039203;28;20272;-74
2022/09/14 05:38:13;;;;;;;9.83;8.83;;;19.10;99.90;;;;;;5041580;28;20291;-74
2022/09/14 05:40:38;;;;;;;13.93;10.53;;;19.20;99.90;;;;;;5036107;28;20181;-75
2022/09/14 05:43:04;;;;;;;12.40;10.27;;;19.20;99.90;;;;;;5043092;28;20174;-74
2022/09/14 05:45:30;;;;;;;12.20;10.07;;;19.20;99.90;;;;;;5028125;28;20190;-74
2022/09/14 05:48:01;;;;;;;14.20;11.23;;;19.30;99.90;;;;;;5035866;28;20205;-75
2022/09/14 05:50:26;;;;;;;11.87;10.27;;;19.30;99.90;;;;;;5040594;28;20643;-73
2022/09/14 05:52:53;;;;;;;15.40;12.00;;;19.30;99.90;;;;;;5038835;28;20206;-78
2022/09/14 05:55:19;;;;;;;14.20;11.40;;;19.30;99.90;;;;;;5048565;28;20182;-76
2022/09/14 05:57:48;;;;;;;12.17;10.83;;;19.30;99.90;;;;;;5034683;28;20631;-73
2022/09/14 06:00:15;;;;;;;14.20;11.63;;;19.30;99.90;;;;;;5045967;28;20694;-74
2022/09/14 06:02:48;;;;;;;13.33;9.60;;;19.30;99.90;;;;;;5045070;28;20192;-74
2022/09/14 06:05:15;;;;;;;10.30;9.17;;;19.20;99.90;;;;;;5037671;28;20626;-77
2022/09/14 06:07:40;;;;;;;11.10;9.90;;;19.20;99.90;;;;;;5047104;28;20537;-81
2022/09/14 06:10:07;;;;;;;10.67;8.70;;;19.20;99.90;;;;;;5040492;28;20187;-78
2022/09/14 06:12:32;;;;;;;9.00;8.20;;;19.30;99.90;;;;;;5048987;28;20231;-75
2022/09/14 06:14:58;;;;;;;9.60;8.40;;;19.20;99.90;;;;;;5040161;28;20598;-75
2022/09/14 06:17:24;;;;;;;11.20;10.10;;;19.20;99.90;;;;;;5026836;28;20202;-74
2022/09/14 06:19:50;;;;;;;10.40;9.30;;;19.20;99.90;;;;;;5037265;28;20252;-74
2022/09/14 06:22:15;;;;;;;9.70;8.80;;;19.20;99.90;;;;;;5034552;28;20174;-74
2022/09/14 06:24:41;;;;;;;8.47;7.67;;;19.30;99.90;;;;;;5024484;28;20187;-75
2022/09/14 06:27:08;;;;;;;9.33;8.43;;;19.30;99.90;;;;;;5032672;28;20218;-75
